Portada
METAR-TAF:

METAR-TAF

Aeroports :

Luang Namtha, Laos

latitud: 20-57-38N, longitud: 101-24-09E, altitud: 600 m

Observació

L'informe es va fer fa 27 minuts, a les 07:00 UTC
Vent 6 kt del Sud-Oest
Temperatura 30°C
Humitat 38%
Pressió 1012 hPa
Visibilitat: 6000 m
Núvols disperses a una alçada de 2000 ft
Cel ennuvolat a una alçada de 10000 ft

METAR: VLLN 280700Z 22006KT 6000 SCT020 BKN100 30/14 Q1012 NOSIG

Hora: 12:57 (07:27 UTC)

Pronòstic

L'informe es va fer fa 2 hores i 27 minuts, a les 05:00 UTC
Pronòstic vàlid del 28 a les 06 UTC al 29 a les 06 UTC
Vent 4 kt del Oest
Visibilitat: 7000 m
Núvols disperses a una alçada de 2000 ft
Escasses núvols a una alçada de 10000 ft

TAF: VLLN 280500Z 2806/2906 27004KT 7000 SCT020 FEW100

Observacions i pronòstics meteorològics de més de 4000 aeroports (METAR i TAF).

Les estacions disponibles són els punts grocs i vermells al mapa.

Posi el ratolí al punt desitjat per veure el nom de l'estació.

Feu clic per veure les observacions i els pronòstics meteorològics.

Per canviar el mapa: feu clic els botons verds amb una creu de color negre per apropar; al botó verd amb un guió per allunyar la imatge; o en les fletxes verdes per a mapes adjacents.


METAR-TAF: